Time;durP1;ratioP1;P1;durP2;ratioP2;P2;SDS_P1;SDS_P2;PMS_P1;PMS_P2;Temp;Humidity;BMP_temperature;BMP_pressure;BME280_temperature;BME280_humidity;BME280_pressure;Samples;Min_cycle;Max_cycle;Signal;HPM_P1;HPM_P2
2022/10/09 00:00:25;;;;;;;15.15;5.18;;;11.10;99.90;;;;;;4834598;29;20065;-67
2022/10/09 00:02:51;;;;;;;16.77;6.10;;;11.00;99.90;;;;;;4832638;29;20071;-66
2022/10/09 00:05:19;;;;;;;12.50;5.45;;;11.10;99.90;;;;;;4837877;29;20671;-68
2022/10/09 00:07:46;;;;;;;10.20;4.88;;;11.00;99.90;;;;;;4840162;29;20472;-67
2022/10/09 00:10:13;;;;;;;12.02;5.65;;;11.00;99.90;;;;;;4831746;29;20508;-68
2022/10/09 00:12:39;;;;;;;14.00;5.80;;;10.90;99.90;;;;;;4833387;29;20054;-66
2022/10/09 00:15:07;;;;;;;12.50;6.18;;;10.90;99.90;;;;;;4837056;29;20060;-67
2022/10/09 00:17:33;;;;;;;10.43;4.53;;;10.90;99.90;;;;;;4835280;29;20059;-67
2022/10/09 00:20:00;;;;;;;9.80;4.47;;;10.90;99.90;;;;;;4837347;29;20045;-67
2022/10/09 00:22:27;;;;;;;;;;;10.90;99.90;;;;;;4834538;29;20378;-67
2022/10/09 00:24:53;;;;;;;14.32;4.70;;;10.80;99.90;;;;;;4837262;29;19928;-67
2022/10/09 00:27:21;;;;;;;17.42;6.45;;;10.90;99.90;;;;;;4835544;29;20060;-67
2022/10/09 00:29:49;;;;;;;6.97;4.57;;;10.90;99.90;;;;;;4831712;29;20446;-68
2022/10/09 00:32:16;;;;;;;22.50;7.00;;;10.80;99.90;;;;;;4832815;29;20420;-67
2022/10/09 00:34:43;;;;;;;12.93;6.38;;;10.80;99.90;;;;;;4833493;29;20064;-67
2022/10/09 00:37:10;;;;;;;17.63;6.07;;;10.70;99.90;;;;;;4837956;29;20049;-68
2022/10/09 00:39:36;;;;;;;17.67;5.43;;;10.70;99.90;;;;;;4836747;29;20123;-68
2022/10/09 00:42:03;;;;;;;10.07;5.40;;;10.70;99.90;;;;;;4831857;29;20051;-68
2022/10/09 00:44:56;;;;;;;18.58;6.70;;;10.60;99.90;;;;;;4832653;29;20054;-68
2022/10/09 00:47:28;;;;;;;14.95;5.00;;;10.60;99.90;;;;;;4836368;29;20049;-66
2022/10/09 00:50:11;;;;;;;12.02;5.20;;;10.60;99.90;;;;;;4833869;29;20140;-67
2022/10/09 00:52:38;;;;;;;14.85;5.30;;;10.50;99.90;;;;;;4834652;29;20299;-68
2022/10/09 00:55:07;;;;;;;12.68;5.43;;;10.50;99.90;;;;;;4835500;29;20061;-66
2022/10/09 00:57:34;;;;;;;16.23;5.95;;;10.40;99.90;;;;;;4829591;29;20189;-67
2022/10/09 01:00:04;;;;;;;17.75;6.32;;;10.40;99.90;;;;;;4833546;29;20312;-68
2022/10/09 01:02:31;;;;;;;14.57;5.38;;;10.40;99.90;;;;;;4831427;29;20045;-68
2022/10/09 01:04:58;;;;;;;12.63;5.43;;;10.30;99.90;;;;;;4833981;29;20109;-68
2022/10/09 01:07:28;;;;;;;;;;;10.30;99.90;;;;;;4839907;29;20369;-68
2022/10/09 01:10:31;;;;;;;14.25;5.57;;;10.30;99.90;;;;;;4830803;29;20399;-68
2022/10/09 01:13:16;;;;;;;15.20;5.88;;;10.30;99.90;;;;;;4833047;29;20416;-68
2022/10/09 01:15:57;;;;;;;10.35;5.47;;;10.20;99.90;;;;;;4837368;29;20622;-68
2022/10/09 01:18:49;;;;;;;9.27;4.93;;;10.20;99.90;;;;;;4832196;29;20563;-68
2022/10/09 01:21:19;;;;;;;15.88;6.47;;;10.20;99.90;;;;;;4837512;29;20053;-68
2022/10/09 01:23:55;;;;;;;16.50;5.45;;;10.20;99.90;;;;;;4826921;29;20478;-68
2022/10/09 01:26:41;;;;;;;11.10;5.15;;;10.20;99.90;;;;;;4827790;29;20080;-67
2022/10/09 01:29:10;;;;;;;15.23;5.22;;;10.20;99.90;;;;;;4838013;29;20124;-68
2022/10/09 01:31:41;;;;;;;7.63;4.47;;;10.20;99.90;;;;;;4838368;29;20615;-66
2022/10/09 01:34:10;;;;;;;8.52;4.30;;;10.10;99.90;;;;;;4830680;29;20061;-69
2022/10/09 01:36:39;;;;;;;9.23;4.53;;;10.10;99.90;;;;;;4834519;29;20408;-66
2022/10/09 01:39:09;;;;;;;11.52;4.93;;;10.10;99.90;;;;;;4832681;29;20052;-69
2022/10/09 01:41:36;;;;;;;6.85;3.72;;;10.10;99.90;;;;;;4828765;29;20066;-68
2022/10/09 01:44:13;;;;;;;9.27;4.90;;;10.10;99.90;;;;;;4837592;29;20272;-67
2022/10/09 01:46:39;;;;;;;6.60;3.95;;;10.00;99.90;;;;;;4838049;29;20045;-68
2022/10/09 01:49:28;;;;;;;;;;;10.00;99.90;;;;;;4833249;29;20575;-67
2022/10/09 01:52:10;;;;;;;12.27;5.50;;;10.00;99.90;;;;;;4837501;29;20429;-67
2022/10/09 01:54:48;;;;;;;16.83;5.47;;;10.00;99.90;;;;;;4837443;29;20388;-65
2022/10/09 01:57:22;;;;;;;13.13;5.78;;;10.00;99.90;;;;;;4834457;29;20041;-67
2022/10/09 01:59:51;;;;;;;8.98;3.80;;;10.00;99.90;;;;;;4836753;29;20099;-68
2022/10/09 02:02:19;;;;;;;9.77;5.15;;;9.90;99.90;;;;;;4837149;29;20063;-67
2022/10/09 02:04:47;;;;;;;9.23;5.00;;;9.90;99.90;;;;;;4836647;29;20049;-68
2022/10/09 02:07:15;;;;;;;18.95;6.35;;;9.90;99.90;;;;;;4835302;29;20053;-68
2022/10/09 02:09:43;;;;;;;7.90;4.55;;;9.90;99.90;;;;;;4836491;29;20188;-66
2022/10/09 02:12:11;;;;;;;9.15;5.25;;;9.90;99.90;;;;;;4828426;29;20060;-65
2022/10/09 02:14:38;;;;;;;14.90;5.10;;;9.90;99.90;;;;;;4829589;29;20053;-67
2022/10/09 02:17:08;;;;;;;;;;;9.90;99.90;;;;;;4831588;29;20076;-67
2022/10/09 02:19:42;;;;;;;12.68;6.70;;;9.90;99.90;;;;;;4833429;29;19928;-67
2022/10/09 02:22:20;;;;;;;10.35;5.88;;;9.90;99.90;;;;;;4830937;29;20107;-67
2022/10/09 02:24:46;;;;;;;11.43;6.10;;;10.00;99.90;;;;;;4828280;29;20106;-68
2022/10/09 02:27:13;;;;;;;;;;;10.00;99.90;;;;;;4830969;29;20108;-66
2022/10/09 02:29:42;;;;;;;10.10;5.43;;;10.00;99.90;;;;;;4837284;29;19935;-67
2022/10/09 02:32:09;;;;;;;10.75;6.05;;;10.00;99.90;;;;;;4836661;29;20416;-67
2022/10/09 02:34:36;;;;;;;12.35;5.38;;;10.00;99.90;;;;;;4840386;29;20045;-67
2022/10/09 02:37:04;;;;;;;12.07;5.70;;;10.00;99.90;;;;;;4839980;29;20569;-66
2022/10/09 02:39:30;;;;;;;12.25;6.22;;;10.00;99.90;;;;;;4834214;29;20055;-67
2022/10/09 02:41:57;;;;;;;10.93;5.68;;;10.00;99.90;;;;;;4837662;29;20076;-68
2022/10/09 02:44:24;;;;;;;15.88;6.65;;;10.00;99.90;;;;;;4837921;29;20049;-67
2022/10/09 02:46:50;;;;;;;;;;;10.00;99.90;;;;;;4838111;29;20044;-67
2022/10/09 02:49:17;;;;;;;13.43;6.63;;;10.00;99.90;;;;;;4830790;29;19928;-67
2022/10/09 02:51:44;;;;;;;12.70;5.80;;;10.00;99.90;;;;;;4839210;29;20522;-66
2022/10/09 02:54:11;;;;;;;;;;;10.00;99.90;;;;;;4834006;29;20046;-68
2022/10/09 02:56:38;;;;;;;22.55;6.72;;;10.00;99.90;;;;;;4838721;29;20014;-67
2022/10/09 02:59:05;;;;;;;16.02;7.03;;;10.00;99.90;;;;;;4835384;29;20052;-67
2022/10/09 03:01:32;;;;;;;15.35;6.57;;;10.00;99.90;;;;;;4836879;29;20467;-66
2022/10/09 03:03:59;;;;;;;;;;;10.00;99.90;;;;;;4839867;29;20033;-66
2022/10/09 03:06:27;;;;;;;10.38;6.15;;;9.90;99.90;;;;;;4834120;29;19935;-68
2022/10/09 03:08:55;;;;;;;15.20;6.40;;;10.00;99.90;;;;;;4832994;29;20128;-66
2022/10/09 03:11:23;;;;;;;13.85;6.22;;;10.00;99.90;;;;;;4838074;29;20430;-68
2022/10/09 03:13:51;;;;;;;16.70;7.10;;;10.00;99.90;;;;;;4833743;29;20671;-67
2022/10/09 03:16:20;;;;;;;19.02;6.45;;;9.90;99.90;;;;;;4834689;29;20050;-67
2022/10/09 03:18:48;;;;;;;10.70;5.45;;;9.90;99.90;;;;;;4828629;29;20041;-67
2022/10/09 03:21:21;;;;;;;11.30;5.82;;;9.90;99.90;;;;;;4831222;29;20066;-67
2022/10/09 03:23:48;;;;;;;17.40;7.25;;;9.90;99.90;;;;;;4837670;29;20145;-66
2022/10/09 03:26:18;;;;;;;12.35;6.60;;;9.90;99.90;;;;;;4832017;29;20136;-67
2022/10/09 03:28:47;;;;;;;15.10;7.05;;;9.90;99.90;;;;;;4834099;29;20109;-68
2022/10/09 03:31:16;;;;;;;14.13;7.10;;;9.80;99.90;;;;;;4832023;29;20073;-66
2022/10/09 03:34:03;;;;;;;17.05;7.00;;;9.80;99.90;;;;;;4833208;29;20074;-67
2022/10/09 03:36:29;;;;;;;12.23;7.88;;;9.80;99.90;;;;;;4833904;29;20054;-67
2022/10/09 03:38:56;;;;;;;;;;;9.80;99.90;;;;;;4836156;29;20396;-66
2022/10/09 03:41:23;;;;;;;15.52;8.20;;;9.80;99.90;;;;;;4835563;29;19935;-67
2022/10/09 03:43:50;;;;;;;15.90;7.45;;;9.80;99.90;;;;;;4829614;29;20144;-67
2022/10/09 03:46:16;;;;;;;;;;;9.70;99.90;;;;;;4834462;29;20060;-66
2022/10/09 03:48:43;;;;;;;19.38;7.93;;;9.80;99.90;;;;;;4832548;29;19928;-66
2022/10/09 03:51:10;;;;;;;;;;;9.80;99.90;;;;;;4835033;29;20515;-68
2022/10/09 03:53:36;;;;;;;10.43;7.13;;;9.80;99.90;;;;;;4834146;29;20503;-67
2022/10/09 03:56:03;;;;;;;12.30;7.55;;;9.80;99.90;;;;;;4835173;29;20049;-68
2022/10/09 03:58:30;;;;;;;14.43;8.05;;;9.80;99.90;;;;;;4835275;29;20074;-67
2022/10/09 04:00:57;;;;;;;13.85;7.53;;;9.80;99.90;;;;;;4833085;29;20052;-67
2022/10/09 04:03:26;;;;;;;;;;;9.80;99.90;;;;;;4835209;29;20072;-66
2022/10/09 04:05:52;;;;;;;18.00;8.35;;;9.80;99.90;;;;;;4834412;29;19925;-66
2022/10/09 04:08:19;;;;;;;20.23;8.88;;;9.80;99.90;;;;;;4834225;29;20373;-66
2022/10/09 04:10:45;;;;;;;24.98;8.68;;;9.80;99.90;;;;;;4834534;29;20054;-66
2022/10/09 04:13:12;;;;;;;14.73;7.57;;;9.80;99.90;;;;;;4833833;29;20669;-66
2022/10/09 04:15:39;;;;;;;17.90;8.32;;;9.80;99.90;;;;;;4832410;29;20472;-66
2022/10/09 04:18:06;;;;;;;14.68;8.88;;;9.80;99.90;;;;;;4834992;29;20069;-67
2022/10/09 04:20:33;;;;;;;18.92;8.13;;;9.80;99.90;;;;;;4809373;29;20435;-66
2022/10/09 04:23:00;;;;;;;17.20;8.30;;;9.90;99.90;;;;;;4833137;29;20595;-66
2022/10/09 04:25:27;;;;;;;19.55;9.43;;;9.90;99.90;;;;;;4834330;29;20049;-67
2022/10/09 04:27:53;;;;;;;13.40;7.50;;;9.90;99.90;;;;;;4832738;29;20106;-67
2022/10/09 04:30:20;;;;;;;11.90;7.43;;;9.90;99.90;;;;;;4832281;29;20076;-66
2022/10/09 04:32:47;;;;;;;13.20;7.95;;;9.90;99.90;;;;;;4832771;29;20054;-67
2022/10/09 04:35:15;;;;;;;14.40;8.95;;;9.90;99.90;;;;;;4833006;29;20413;-65
2022/10/09 04:37:42;;;;;;;24.10;9.23;;;9.90;99.90;;;;;;4829766;29;20050;-67
2022/10/09 04:40:09;;;;;;;;;;;9.90;99.90;;;;;;4836042;29;20440;-67
2022/10/09 04:42:35;;;;;;;15.90;8.02;;;9.90;99.90;;;;;;4826734;29;19995;-66
2022/10/09 04:45:02;;;;;;;;;;;9.90;99.90;;;;;;4836263;29;20723;-67
2022/10/09 04:47:29;;;;;;;16.17;8.68;;;9.90;99.90;;;;;;4839562;29;19955;-67
2022/10/09 04:49:56;;;;;;;16.08;8.73;;;9.80;99.90;;;;;;4836134;29;20166;-66
2022/10/09 04:52:23;;;;;;;17.77;9.27;;;9.80;99.90;;;;;;4833782;29;20049;-66
2022/10/09 04:54:49;;;;;;;;;;;9.80;99.90;;;;;;4832667;29;20113;-67
2022/10/09 04:57:16;;;;;;;15.50;7.72;;;9.80;99.90;;;;;;4836956;29;20205;-65
2022/10/09 04:59:43;;;;;;;;;;;9.80;99.90;;;;;;4834437;29;20046;-67
2022/10/09 05:02:10;;;;;;;12.95;7.85;;;9.80;99.90;;;;;;4830878;29;19934;-67
2022/10/09 05:04:37;;;;;;;17.70;9.40;;;9.80;99.90;;;;;;4833665;29;20054;-67
2022/10/09 05:07:03;;;;;;;;;;;9.80;99.90;;;;;;4836287;29;20202;-65
2022/10/09 05:09:30;;;;;;;14.30;8.52;;;9.80;99.90;;;;;;4832317;29;19928;-67
2022/10/09 05:11:56;;;;;;;14.75;8.55;;;9.80;99.90;;;;;;4834600;29;20609;-65
2022/10/09 05:14:23;;;;;;;10.88;7.18;;;9.80;99.90;;;;;;4829105;29;20512;-67
2022/10/09 05:16:53;;;;;;;;;;;9.80;99.90;;;;;;4838649;29;20053;-66
2022/10/09 05:19:39;;;;;;;;;;;9.80;99.90;;;;;;4831996;29;19928;-65
2022/10/09 05:22:06;;;;;;;13.30;7.53;;;9.80;99.90;;;;;;4833398;29;19932;-67
2022/10/09 05:24:32;;;;;;;13.65;9.25;;;9.80;99.90;;;;;;4831524;29;20054;-67
2022/10/09 05:26:59;;;;;;;13.85;7.68;;;9.80;99.90;;;;;;4832380;29;20559;-67
2022/10/09 05:29:26;;;;;;;12.57;7.88;;;9.80;99.90;;;;;;4829144;29;20057;-65
2022/10/09 05:31:52;;;;;;;10.88;5.95;;;9.90;99.90;;;;;;4831962;29;20049;-66
2022/10/09 05:34:19;;;;;;;;;;;9.90;99.90;;;;;;4834604;29;20049;-67
2022/10/09 05:36:46;;;;;;;13.98;9.48;;;9.80;99.90;;;;;;4834739;29;19928;-66
2022/10/09 05:39:12;;;;;;;;;;;9.80;99.90;;;;;;4836377;29;20044;-67
2022/10/09 05:41:39;;;;;;;15.00;7.10;;;9.80;99.90;;;;;;4829617;29;19936;-67
2022/10/09 05:44:06;;;;;;;12.18;6.68;;;9.90;99.90;;;;;;4806958;29;20065;-66
2022/10/09 05:46:33;;;;;;;10.57;8.07;;;9.90;99.90;;;;;;4834918;29;20056;-65
2022/10/09 05:49:06;;;;;;;18.17;8.60;;;9.90;99.90;;;;;;4833775;29;20051;-66
2022/10/09 05:51:36;;;;;;;10.63;6.88;;;9.90;99.90;;;;;;4831116;29;20134;-66
2022/10/09 05:54:04;;;;;;;8.63;6.45;;;9.90;99.90;;;;;;4836976;29;20177;-67
2022/10/09 05:56:33;;;;;;;14.35;7.75;;;9.90;99.90;;;;;;4823503;29;20049;-65
2022/10/09 05:59:05;;;;;;;14.25;8.10;;;9.90;99.90;;;;;;4838570;29;20049;-64
2022/10/09 06:01:35;;;;;;;14.48;7.78;;;9.90;99.90;;;;;;4829767;29;20473;-51
2022/10/09 06:04:02;;;;;;;13.15;7.63;;;9.90;99.90;;;;;;4833408;29;20203;-54
2022/10/09 06:06:32;;;;;;;10.98;6.30;;;10.00;99.90;;;;;;4835733;29;20606;-50
2022/10/09 06:08:59;;;;;;;14.48;7.85;;;10.00;99.90;;;;;;4834765;29;20081;-53
2022/10/09 06:11:30;;;;;;;16.27;8.32;;;10.00;99.90;;;;;;4826442;29;20287;-52
2022/10/09 06:13:59;;;;;;;14.68;8.27;;;10.00;99.90;;;;;;4830751;29;20072;-55
2022/10/09 06:16:29;;;;;;;17.67;8.32;;;10.00;99.90;;;;;;4837483;29;20688;-56
2022/10/09 06:18:56;;;;;;;11.60;8.57;;;10.00;99.90;;;;;;4827659;29;20586;-49
2022/10/09 06:21:25;;;;;;;15.40;7.50;;;10.00;99.90;;;;;;4829997;29;20050;-54
2022/10/09 06:23:54;;;;;;;9.80;7.18;;;10.00;99.90;;;;;;4833501;29;20060;-54
2022/10/09 06:26:23;;;;;;;16.02;8.73;;;10.00;99.90;;;;;;4831940;29;20419;-56
2022/10/09 06:28:51;;;;;;;12.00;6.78;;;10.00;99.90;;;;;;4830342;29;20050;-55
2022/10/09 06:31:23;;;;;;;17.20;7.93;;;10.00;99.90;;;;;;4827579;29;20054;-54
2022/10/09 06:33:51;;;;;;;10.85;8.68;;;10.00;99.90;;;;;;4827583;29;20443;-54
2022/10/09 06:36:21;;;;;;;11.18;7.18;;;10.00;99.90;;;;;;4831315;29;20344;-53
2022/10/09 06:38:48;;;;;;;11.43;7.60;;;10.00;99.90;;;;;;4831558;29;20102;-56
2022/10/09 06:41:21;;;;;;;17.42;8.05;;;10.00;99.90;;;;;;4834709;29;20049;-55
2022/10/09 06:43:55;;;;;;;13.88;8.10;;;10.00;99.90;;;;;;4833648;29;20159;-55
2022/10/09 06:46:25;;;;;;;11.85;7.63;;;10.00;99.90;;;;;;4834001;29;20514;-54
2022/10/09 06:48:52;;;;;;;11.38;7.60;;;10.00;99.90;;;;;;4833334;29;20057;-52
2022/10/09 06:51:23;;;;;;;13.93;7.57;;;10.10;99.90;;;;;;4832763;29;20414;-56
2022/10/09 06:53:51;;;;;;;14.32;7.88;;;10.10;99.90;;;;;;4832374;29;20069;-55
2022/10/09 06:56:20;;;;;;;13.35;8.23;;;10.10;99.90;;;;;;4834108;29;20236;-55
2022/10/09 06:58:47;;;;;;;15.55;8.05;;;10.10;99.90;;;;;;4834126;29;20366;-56
2022/10/09 07:01:18;;;;;;;18.52;8.88;;;10.10;99.90;;;;;;4835236;29;20061;-55
2022/10/09 07:03:47;;;;;;;14.90;7.70;;;10.10;99.90;;;;;;4832472;29;20663;-54
2022/10/09 07:06:19;;;;;;;15.38;8.07;;;10.10;99.90;;;;;;4834466;29;20180;-52
2022/10/09 07:08:49;;;;;;;13.02;7.95;;;10.10;99.90;;;;;;4830499;29;20082;-53
2022/10/09 07:11:24;;;;;;;12.30;6.93;;;10.10;99.90;;;;;;4832687;29;20135;-54
2022/10/09 07:13:54;;;;;;;12.95;7.65;;;10.10;99.90;;;;;;4833086;29;20121;-54
2022/10/09 07:16:26;;;;;;;15.43;7.95;;;10.10;99.90;;;;;;4827621;29;20353;-56
2022/10/09 07:18:54;;;;;;;17.27;9.32;;;10.10;99.90;;;;;;4832661;29;20133;-54
2022/10/09 07:21:22;;;;;;;23.85;9.43;;;10.10;99.90;;;;;;4834136;29;20104;-56
2022/10/09 07:23:49;;;;;;;15.20;8.68;;;10.20;99.90;;;;;;4832068;29;20363;-53
2022/10/09 07:26:19;;;;;;;15.27;8.57;;;10.20;99.90;;;;;;4835752;29;20050;-54
2022/10/09 07:28:46;;;;;;;13.73;8.05;;;10.20;99.90;;;;;;4831007;29;20591;-54
2022/10/09 07:31:14;;;;;;;20.02;9.43;;;10.20;99.90;;;;;;4832450;29;20057;-54
2022/10/09 07:33:41;;;;;;;18.02;9.30;;;10.20;99.90;;;;;;4828751;29;20886;-54
2022/10/09 07:36:08;;;;;;;;;;;10.20;99.90;;;;;;4836743;29;20060;-54
2022/10/09 07:38:35;;;;;;;23.00;10.35;;;10.20;99.90;;;;;;4831093;29;19938;-54
2022/10/09 07:41:08;;;;;;;21.40;10.45;;;10.20;99.90;;;;;;4824588;29;20080;-55
2022/10/09 07:43:36;;;;;;;16.40;8.68;;;10.20;99.90;;;;;;4836025;29;20583;-53
2022/10/09 07:46:06;;;;;;;15.20;7.88;;;10.20;99.90;;;;;;4833500;29;20571;-54
2022/10/09 07:48:34;;;;;;;17.25;9.82;;;10.20;99.90;;;;;;4828616;29;20062;-53
2022/10/09 07:51:12;;;;;;;14.82;9.18;;;10.20;99.90;;;;;;4834847;29;20124;-52
2022/10/09 07:53:40;;;;;;;21.15;9.68;;;10.20;99.90;;;;;;4836500;29;20091;-54
2022/10/09 07:56:11;;;;;;;11.98;8.63;;;10.20;99.90;;;;;;4835016;29;20057;-55
2022/10/09 07:58:38;;;;;;;24.65;9.77;;;10.30;99.90;;;;;;4834078;29;20220;-54
2022/10/09 08:01:06;;;;;;;29.30;17.00;;;10.30;99.90;;;;;;4835413;29;20045;-54
2022/10/09 08:03:34;;;;;;;25.05;13.32;;;10.30;99.90;;;;;;4833614;29;20751;-51
2022/10/09 08:06:00;;;;;;;25.27;11.02;;;10.30;99.90;;;;;;4834908;29;20053;-53
2022/10/09 08:08:28;;;;;;;14.45;9.18;;;10.30;99.90;;;;;;4838604;29;20288;-53
2022/10/09 08:10:55;;;;;;;21.70;10.55;;;10.30;99.90;;;;;;4834494;29;20059;-51
2022/10/09 08:13:21;;;;;;;;;;;10.30;99.90;;;;;;4834245;29;20366;-52
2022/10/09 08:15:48;;;;;;;26.08;10.35;;;10.30;99.90;;;;;;4835174;29;19931;-54
2022/10/09 08:18:15;;;;;;;;;;;10.30;99.90;;;;;;4835816;29;20046;-57
2022/10/09 08:20:42;;;;;;;24.98;10.80;;;10.30;99.90;;;;;;4835985;29;19928;-54
2022/10/09 08:23:08;;;;;;;24.90;10.73;;;10.40;99.90;;;;;;4833381;29;20551;-54
2022/10/09 08:25:36;;;;;;;17.42;10.00;;;10.40;99.90;;;;;;4810901;29;20129;-54
2022/10/09 08:28:03;;;;;;;18.73;9.90;;;10.40;99.90;;;;;;4832874;29;20114;-53
2022/10/09 08:30:30;;;;;;;16.38;9.23;;;10.40;99.90;;;;;;4834832;29;20103;-53
2022/10/09 08:32:57;;;;;;;25.30;11.85;;;10.40;99.90;;;;;;4831631;29;20564;-55
2022/10/09 08:35:24;;;;;;;15.07;9.88;;;10.40;99.90;;;;;;4832435;29;20041;-53
2022/10/09 08:37:51;;;;;;;;;;;10.40;99.90;;;;;;4833746;29;20489;-53
2022/10/09 08:40:30;;;;;;;19.70;10.52;;;10.40;99.90;;;;;;4833461;29;20414;-57
2022/10/09 08:43:03;;;;;;;18.05;9.65;;;10.40;99.90;;;;;;4834072;29;20124;-58
2022/10/09 08:45:33;;;;;;;24.48;11.35;;;10.40;99.90;;;;;;4832795;29;20183;-56
2022/10/09 08:48:06;;;;;;;17.45;9.52;;;10.40;99.90;;;;;;4826636;29;20129;-56
2022/10/09 08:50:37;;;;;;;23.27;11.95;;;10.50;99.90;;;;;;4830475;29;20521;-55
2022/10/09 08:53:36;;;;;;;18.27;11.07;;;10.50;99.90;;;;;;4834001;29;20600;-54
2022/10/09 08:56:10;;;;;;;27.77;12.90;;;10.50;99.90;;;;;;4830295;29;20045;-55
2022/10/09 08:58:39;;;;;;;17.40;9.93;;;10.50;99.90;;;;;;4832371;29;20105;-52
2022/10/09 09:01:45;;;;;;;18.50;9.82;;;10.50;99.90;;;;;;4830409;29;20591;-55
2022/10/09 09:04:30;;;;;;;22.48;11.48;;;10.60;99.90;;;;;;4830522;29;20062;-54
2022/10/09 09:07:00;;;;;;;16.45;10.85;;;10.60;99.90;;;;;;4836118;29;20491;-55
2022/10/09 09:09:34;;;;;;;23.00;11.23;;;10.60;99.90;;;;;;4834263;29;20048;-54
2022/10/09 09:12:08;;;;;;;20.00;11.38;;;10.60;99.90;;;;;;4834612;29;20063;-57
2022/10/09 09:14:38;;;;;;;19.02;11.15;;;10.60;99.90;;;;;;4833027;29;20144;-55
2022/10/09 09:17:27;;;;;;;26.70;11.90;;;10.60;99.90;;;;;;4837759;29;20352;-55
2022/10/09 09:20:07;;;;;;;16.70;11.10;;;10.60;99.90;;;;;;4836420;29;20771;-56
2022/10/09 09:22:38;;;;;;;19.45;10.70;;;10.50;99.90;;;;;;4826980;29;20050;-56
2022/10/09 09:25:18;;;;;;;21.80;10.50;;;10.50;99.90;;;;;;4838276;29;20077;-56
2022/10/09 09:27:46;;;;;;;28.08;13.50;;;10.40;99.90;;;;;;4832668;29;20049;-56
2022/10/09 09:30:18;;;;;;;19.90;10.40;;;10.40;99.90;;;;;;4828506;29;20347;-56
2022/10/09 09:33:15;;;;;;;25.98;12.75;;;10.40;99.90;;;;;;4830940;29;20057;-59
2022/10/09 09:36:20;;;;;;;24.05;11.82;;;10.40;99.90;;;;;;4809999;29;20049;-53
2022/10/09 09:38:48;;;;;;;26.75;12.43;;;10.40;99.90;;;;;;4830647;29;20052;-55
2022/10/09 09:41:35;;;;;;;17.70;12.48;;;10.40;99.90;;;;;;4830655;29;20268;-59
2022/10/09 09:44:02;;;;;;;21.90;13.73;;;10.40;99.90;;;;;;4834568;29;20541;-54
2022/10/09 09:46:31;;;;;;;22.77;11.88;;;10.40;99.90;;;;;;4830767;29;20558;-55
2022/10/09 09:48:57;;;;;;;20.45;12.52;;;10.40;99.90;;;;;;4831180;29;20429;-52
2022/10/09 09:51:28;;;;;;;24.00;12.45;;;10.50;99.90;;;;;;4830321;29;20080;-54
2022/10/09 09:53:57;;;;;;;22.95;12.20;;;10.50;99.90;;;;;;4828965;29;20360;-55
2022/10/09 09:56:36;;;;;;;19.83;13.02;;;10.50;99.90;;;;;;4835460;29;20049;-53
2022/10/09 09:59:39;;;;;;;26.67;12.93;;;10.50;99.90;;;;;;4826944;29;20837;-53
2022/10/09 10:02:08;;;;;;;25.40;13.82;;;10.50;99.90;;;;;;4835239;29;20561;-56
2022/10/09 10:04:35;;;;;;;32.28;14.48;;;10.50;99.90;;;;;;4831804;29;20053;-55
2022/10/09 10:07:08;;;;;;;28.23;13.77;;;10.40;99.90;;;;;;4831214;29;20251;-53
2022/10/09 10:09:35;;;;;;;24.33;13.98;;;10.40;99.90;;;;;;4824918;29;20383;-54
2022/10/09 10:12:02;;;;;;;31.27;14.00;;;10.40;99.90;;;;;;4828717;29;20081;-58
2022/10/09 10:14:31;;;;;;;25.20;13.85;;;10.40;99.90;;;;;;4827396;29;20051;-54
2022/10/09 10:16:59;;;;;;;21.88;14.05;;;10.40;99.90;;;;;;4827564;29;20651;-54
2022/10/09 10:19:34;;;;;;;20.55;12.55;;;10.30;99.90;;;;;;4834156;29;20067;-58
2022/10/09 10:22:02;;;;;;;20.80;12.52;;;10.40;99.90;;;;;;4830462;29;20052;-58
2022/10/09 10:24:33;;;;;;;28.50;13.35;;;10.40;99.90;;;;;;4829978;29;20505;-52
2022/10/09 10:27:29;;;;;;;22.65;14.02;;;10.40;99.90;;;;;;4833184;29;20054;-50
2022/10/09 10:30:03;;;;;;;24.52;13.07;;;10.40;99.90;;;;;;4834866;29;20512;-58
2022/10/09 10:32:37;;;;;;;24.35;13.63;;;10.50;99.90;;;;;;4830279;29;20121;-56
2022/10/09 10:35:39;;;;;;;23.25;13.90;;;10.50;99.90;;;;;;4833979;29;20214;-54
2022/10/09 10:38:37;;;;;;;16.83;9.98;;;10.50;99.90;;;;;;4818197;29;20523;-54
2022/10/09 10:41:22;;;;;;;20.60;13.32;;;10.50;99.90;;;;;;4831748;29;20664;-52
2022/10/09 10:44:14;;;;;;;27.40;13.00;;;10.50;99.90;;;;;;4830468;29;20540;-55
2022/10/09 10:46:51;;;;;;;23.63;15.23;;;10.60;99.90;;;;;;4832845;29;20073;-54
2022/10/09 10:49:22;;;;;;;21.73;14.15;;;10.60;99.90;;;;;;4836051;29;20049;-56
2022/10/09 10:52:09;;;;;;;21.67;13.77;;;10.60;99.90;;;;;;4835627;29;20061;-55
2022/10/09 10:54:45;;;;;;;29.02;15.07;;;10.60;99.90;;;;;;4828870;29;20049;-53
2022/10/09 10:57:49;;;;;;;30.08;15.77;;;10.60;99.90;;;;;;4836015;29;20132;-53
2022/10/09 11:00:17;;;;;;;19.40;12.77;;;10.60;99.90;;;;;;4832593;29;20037;-53
2022/10/09 11:03:02;;;;;;;22.52;13.07;;;10.60;99.90;;;;;;4835431;29;20174;-54
2022/10/09 11:05:44;;;;;;;23.25;14.23;;;10.60;99.90;;;;;;4835536;29;20054;-54
2022/10/09 11:08:34;;;;;;;23.27;14.43;;;10.60;99.90;;;;;;4837019;29;20089;-52
2022/10/09 11:11:11;;;;;;;22.08;12.98;;;10.70;99.90;;;;;;4833039;29;20057;-53
2022/10/09 11:13:55;;;;;;;25.20;13.35;;;10.70;99.90;;;;;;4832591;29;20057;-54
2022/10/09 11:16:51;;;;;;;23.58;14.98;;;10.80;99.90;;;;;;4834620;29;20128;-56
2022/10/09 11:19:17;;;;;;;30.20;14.88;;;10.70;99.90;;;;;;4834285;29;20432;-54
2022/10/09 11:22:00;;;;;;;24.27;12.40;;;10.70;99.90;;;;;;4833851;29;20156;-52
2022/10/09 11:24:56;;;;;;;31.67;13.75;;;10.80;99.90;;;;;;4836855;29;20140;-52
2022/10/09 11:27:43;;;;;;;22.63;13.20;;;10.80;99.90;;;;;;4834561;29;20164;-54
2022/10/09 11:30:12;;;;;;;18.30;12.30;;;10.90;99.90;;;;;;4835281;29;20441;-57
2022/10/09 11:33:11;;;;;;;26.20;14.35;;;11.00;99.90;;;;;;4836770;29;20415;-55
2022/10/09 11:35:55;;;;;;;23.85;15.48;;;11.10;99.90;;;;;;4833125;29;20602;-53
2022/10/09 11:38:28;;;;;;;22.45;14.02;;;11.10;99.90;;;;;;4829779;29;20054;-55
2022/10/09 11:40:57;;;;;;;28.55;14.82;;;11.20;99.90;;;;;;4833658;29;20261;-56
2022/10/09 11:43:23;;;;;;;22.33;13.98;;;11.20;99.90;;;;;;4836582;29;20049;-53
2022/10/09 11:45:57;;;;;;;24.95;13.45;;;11.20;99.90;;;;;;4839629;29;20502;-50
2022/10/09 11:48:41;;;;;;;19.13;11.40;;;11.30;99.90;;;;;;4836098;29;20050;-52
2022/10/09 11:51:08;;;;;;;18.45;11.13;;;11.30;99.90;;;;;;4836112;29;20052;-57
2022/10/09 11:53:37;;;;;;;28.42;13.90;;;11.30;99.90;;;;;;4833030;29;20642;-53
2022/10/09 11:56:19;;;;;;;18.90;11.00;;;11.40;99.90;;;;;;4835609;29;20045;-51
2022/10/09 11:59:00;;;;;;;21.17;11.10;;;11.40;99.90;;;;;;4837183;29;20054;-55
2022/10/09 12:01:33;;;;;;;26.60;14.20;;;11.50;99.90;;;;;;4838883;29;20049;-54
2022/10/09 12:04:26;;;;;;;21.10;12.48;;;11.50;99.90;;;;;;4834276;29;20053;-54
2022/10/09 12:07:24;;;;;;;17.58;9.77;;;11.50;99.90;;;;;;4832539;29;20405;-57
2022/10/09 12:09:58;;;;;;;15.32;10.65;;;11.50;99.90;;;;;;4835978;29;20052;-56
2022/10/09 12:12:25;;;;;;;15.63;10.10;;;11.50;99.90;;;;;;4835305;29;20329;-55
2022/10/09 12:14:52;;;;;;;16.95;10.50;;;11.50;99.90;;;;;;4834540;29;20041;-52
2022/10/09 12:17:22;;;;;;;13.85;8.98;;;11.50;99.90;;;;;;4831883;29;20049;-50
2022/10/09 12:19:55;;;;;;;13.75;9.90;;;11.50;99.90;;;;;;4829923;29;20133;-54
2022/10/09 12:22:38;;;;;;;16.80;10.88;;;11.50;99.90;;;;;;4832546;29;20038;-52
2022/10/09 12:25:15;;;;;;;17.90;10.60;;;11.50;99.90;;;;;;4829747;29;20056;-53
2022/10/09 12:27:43;;;;;;;21.95;12.43;;;11.50;99.90;;;;;;4835963;29;20449;-51
2022/10/09 12:30:10;;;;;;;17.92;11.40;;;11.60;99.90;;;;;;4829078;29;20046;-55
2022/10/09 12:32:49;;;;;;;23.90;13.88;;;11.60;99.90;;;;;;4832040;29;20050;-52
2022/10/09 12:35:38;;;;;;;18.70;11.70;;;11.50;99.90;;;;;;4834674;29;20041;-53
2022/10/09 12:38:23;;;;;;;27.52;15.93;;;11.50;99.90;;;;;;4827336;29;20085;-56
2022/10/09 12:40:52;;;;;;;24.80;14.02;;;11.50;99.90;;;;;;4831820;29;20374;-53
2022/10/09 12:43:21;;;;;;;54.28;30.15;;;11.50;99.90;;;;;;4832429;29;20049;-59
2022/10/09 12:45:50;;;;;;;31.85;21.10;;;11.50;99.90;;;;;;4834799;29;20155;-52
2022/10/09 12:48:21;;;;;;;32.83;17.17;;;11.50;99.90;;;;;;4834693;29;20516;-56
2022/10/09 12:50:48;;;;;;;18.33;13.32;;;11.50;99.90;;;;;;4834406;29;20446;-54
2022/10/09 12:53:19;;;;;;;25.35;11.93;;;11.50;99.90;;;;;;4832933;29;20104;-54
2022/10/09 12:55:53;;;;;;;22.20;12.82;;;11.50;99.90;;;;;;4831462;29;20129;-55
2022/10/09 12:58:24;;;;;;;19.85;12.30;;;11.50;99.90;;;;;;4834414;29;20116;-50
2022/10/09 13:00:54;;;;;;;19.92;13.30;;;11.50;99.90;;;;;;4834530;29;20437;-54
2022/10/09 13:03:31;;;;;;;27.40;14.15;;;11.60;99.90;;;;;;4834721;29;20427;-52
2022/10/09 13:05:58;;;;;;;;;;;11.60;99.90;;;;;;4834734;29;20046;-50